Wetterstation Vordersexau
Wetterdaten: Woche 23.06.14 - 29.06.14 (KW26)
Datum Zeit Temp. A. Feuchte A. Luftdruck Regen Wind Richtung Taupunkt Windchill Windben
23.06.2014 00:00 14,4 C 65 % 990,2 hPa 0,0 l/m 0,0 km/h O-NO 7,9 C 14,4 C 0,0 km/h
23.06.2014 01:00 12,0 C 71 % 990,0 hPa 0,0 l/m 0,0 km/h O-SO 6,9 C 12,0 C 0,0 km/h
23.06.2014 02:00 10,9 C 76 % 990,1 hPa 0,0 l/m 0,0 km/h O-SO 6,8 C 10,9 C 0,0 km/h
23.06.2014 03:00 9,9 C 78 % 990,0 hPa 0,0 l/m 0,0 km/h O-SO 6,2 C 9,9 C 0,0 km/h
23.06.2014 04:00 9,1 C 80 % 990,3 hPa 0,0 l/m 0,0 km/h O-SO 5,8 C 9,1 C 0,0 km/h
23.06.2014 05:00 8,6 C 82 % 989,9 hPa 0,0 l/m 0,0 km/h O 5,7 C 8,6 C 0,0 km/h
23.06.2014 06:00 8,9 C 83 % 990,5 hPa 0,0 l/m 0,0 km/h O 6,2 C 8,9 C 0,0 km/h
23.06.2014 07:00 12,6 C 82 % 990,4 hPa 0,0 l/m 0,0 km/h N 9,6 C 12,6 C 0,0 km/h
23.06.2014 08:00 21,8 C 57 % 990,7 hPa 0,0 l/m 0,0 km/h W-NW 12,9 C 21,8 C 0,0 km/h
23.06.2014 09:00 25,2 C 44 % 990,6 hPa 0,0 l/m 1,3 km/h NW 12,1 C 25,2 C 0,7 km/h
23.06.2014 10:00 27,5 C 40 % 989,6 hPa 0,0 l/m 0,0 km/h N-NO 12,7 C 27,5 C 0,0 km/h
23.06.2014 11:00 28,4 C 39 % 988,8 hPa 0,0 l/m 1,3 km/h NW 13,1 C 28,4 C 0,7 km/h
23.06.2014 12:00 29,3 C 38 % 988,8 hPa 0,0 l/m 10,4 km/h W-NW 13,5 C 28,9 C 5,8 km/h
23.06.2014 13:00 30,1 C 37 % 988,3 hPa 0,0 l/m 8,4 km/h NW 13,8 C 29,9 C 4,7 km/h
23.06.2014 14:00 30,1 C 36 % 987,8 hPa 0,0 l/m 16,8 km/h W 13,4 C 29,4 C 9,4 km/h
23.06.2014 15:00 29,9 C 35 % 987,7 hPa 0,0 l/m 5,2 km/h NW 12,8 C 29,9 C 2,9 km/h
23.06.2014 16:00 27,6 C 38 % 987,8 hPa 0,0 l/m 0,0 km/h N-NO 12,0 C 27,6 C 0,0 km/h
23.06.2014 17:00 26,1 C 43 % 987,3 hPa 0,0 l/m 0,0 km/h N-NW 12,5 C 26,1 C 0,0 km/h
23.06.2014 18:00 24,7 C 46 % 987,1 hPa 0,0 l/m 0,0 km/h NO 12,3 C 24,7 C 0,0 km/h
23.06.2014 19:00 23,8 C 48 % 986,7 hPa 0,0 l/m 0,0 km/h NW 12,1 C 23,8 C 0,0 km/h
23.06.2014 20:00 21,1 C 57 % 987,8 hPa 0,0 l/m 0,0 km/h O 12,2 C 21,1 C 0,0 km/h
23.06.2014 21:00 17,9 C 73 % 987,7 hPa 0,2 l/m 0,0 km/h W 13,0 C 17,9 C 0,0 km/h
23.06.2014 22:00 16,7 C 79 % 988,5 hPa 0,3 l/m 0,0 km/h W-SW 13,0 C 16,7 C 0,0 km/h
23.06.2014 23:00 15,8 C 82 % 988,5 hPa 0,3 l/m 0,0 km/h W 12,7 C 15,8 C 0,0 km/h
24.06.2014 00:00 15,8 C 82 % 988,6 hPa 0,0 l/m 0,0 km/h W 12,7 C 15,8 C 0,0 km/h
24.06.2014 01:00 15,4 C 84 % 988,4 hPa 0,2 l/m 0,0 km/h N-NW 12,7 C 15,4 C 0,0 km/h
24.06.2014 02:00 15,4 C 83 % 987,9 hPa 0,2 l/m 0,0 km/h W 12,5 C 15,4 C 0,0 km/h
24.06.2014 03:00 15,0 C 82 % 988,3 hPa 0,2 l/m 0,0 km/h W 12,0 C 15,0 C 0,0 km/h
24.06.2014 04:00 14,4 C 81 % 988,1 hPa 0,2 l/m 1,1 km/h W-NW 11,2 C 14,4 C 1,1 km/h
24.06.2014 05:00 14,4 C 81 % 987,6 hPa 0,0 l/m 0,0 km/h W-NW 11,2 C 14,4 C 0,0 km/h
24.06.2014 06:00 14,5 C 79 % 988,0 hPa 0,0 l/m 0,0 km/h W 10,9 C 14,5 C 0,0 km/h
24.06.2014 07:00 14,9 C 79 % 988,1 hPa 0,0 l/m 0,0 km/h W 11,3 C 14,9 C 0,0 km/h
24.06.2014 08:00 15,3 C 82 % 988,2 hPa 0,0 l/m 1,3 km/h W 12,2 C 15,3 C 0,7 km/h
24.06.2014 09:00 16,3 C 84 % 988,5 hPa 0,0 l/m 3,2 km/h NW 13,6 C 16,3 C 1,8 km/h
24.06.2014 10:00 18,5 C 82 % 988,5 hPa 0,0 l/m 0,0 km/h W 15,4 C 18,5 C 0,0 km/h
24.06.2014 11:00 20,9 C 75 % 988,2 hPa 0,0 l/m 5,2 km/h S 16,3 C 20,9 C 2,9 km/h
24.06.2014 12:00 26,8 C 59 % 987,8 hPa 0,0 l/m 1,1 km/h N-NO 18,1 C 26,8 C 1,1 km/h
24.06.2014 13:00 26,5 C 53 % 987,0 hPa 0,0 l/m 0,0 km/h SW 16,1 C 26,5 C 0,0 km/h
24.06.2014 14:00 29,4 C 44 % 986,5 hPa 0,0 l/m 9,1 km/h W 15,8 C 29,1 C 5,0 km/h
24.06.2014 15:00 29,1 C 43 % 985,9 hPa 0,0 l/m 14,9 km/h N-NO 15,2 C 28,3 C 8,3 km/h
24.06.2014 16:00 29,4 C 42 % 985,4 hPa 0,0 l/m 0,0 km/h W 15,1 C 29,4 C 0,0 km/h
24.06.2014 17:00 33,6 C 33 % 984,5 hPa 0,0 l/m 1,9 km/h N-NO 15,1 C 33,6 C 1,1 km/h
24.06.2014 18:00 32,2 C 32 % 983,9 hPa 0,0 l/m 0,0 km/h N 13,4 C 32,2 C 0,0 km/h
24.06.2014 19:00 28,8 C 35 % 983,4 hPa 0,0 l/m 0,0 km/h N-NO 11,8 C 28,8 C 0,0 km/h
24.06.2014 20:00 23,8 C 44 % 983,4 hPa 0,0 l/m 0,0 km/h N-NO 10,8 C 23,8 C 0,0 km/h
24.06.2014 21:00 20,9 C 54 % 983,3 hPa 0,0 l/m 0,0 km/h NO 11,2 C 20,9 C 0,0 km/h
24.06.2014 22:00 17,1 C 66 % 983,5 hPa 0,0 l/m 0,0 km/h O-NO 10,7 C 17,1 C 0,0 km/h
24.06.2014 23:00 15,1 C 72 % 983,1 hPa 0,0 l/m 0,0 km/h NO 10,1 C 15,1 C 0,0 km/h
25.06.2014 00:00 14,3 C 76 % 983,1 hPa 0,0 l/m 0,0 km/h NO 10,1 C 14,3 C 0,0 km/h
25.06.2014 01:00 13,5 C 78 % 982,6 hPa 0,0 l/m 0,0 km/h SO 9,7 C 13,5 C 0,0 km/h
25.06.2014 02:00 12,4 C 81 % 982,6 hPa 0,0 l/m 0,0 km/h SO 9,2 C 12,4 C 0,0 km/h
25.06.2014 03:00 11,4 C 82 % 982,3 hPa 0,0 l/m 0,0 km/h SO 8,4 C 11,4 C 0,0 km/h
25.06.2014 04:00 10,3 C 83 % 981,9 hPa 0,0 l/m 0,0 km/h O-NO 7,5 C 10,3 C 0,0 km/h
25.06.2014 05:00 9,5 C 84 % 981,6 hPa 0,0 l/m 0,0 km/h N 6,9 C 9,5 C 0,0 km/h
25.06.2014 06:00 9,6 C 84 % 981,5 hPa 0,0 l/m 0,0 km/h SO 7,0 C 9,6 C 0,0 km/h
25.06.2014 07:00 11,9 C 83 % 981,8 hPa 0,0 l/m 1,9 km/h W-SW 9,1 C 11,9 C 1,1 km/h
25.06.2014 08:00 21,8 C 62 % 981,9 hPa 0,0 l/m 0,0 km/h W 14,2 C 21,8 C 0,0 km/h
25.06.2014 09:00 22,6 C 55 % 981,9 hPa 0,0 l/m 0,0 km/h W-NW 13,1 C 22,6 C 0,0 km/h
25.06.2014 10:00 26,6 C 45 % 982,1 hPa 0,0 l/m 1,3 km/h W-NW 13,7 C 26,6 C 0,7 km/h
25.06.2014 11:00 26,2 C 44 % 982,2 hPa 0,0 l/m 0,0 km/h N-NO 13,0 C 26,2 C 0,0 km/h
25.06.2014 12:00 25,4 C 42 % 982,3 hPa 0,0 l/m 35,6 km/h N 11,5 C 22,0 C 19,8 km/h
25.06.2014 13:00 25,9 C 38 % 982,0 hPa 0,0 l/m 12,3 km/h N-NO 10,5 C 24,8 C 6,8 km/h
25.06.2014 14:00 26,8 C 38 % 981,9 hPa 0,0 l/m 21,4 km/h N 11,3 C 24,9 C 11,9 km/h
25.06.2014 15:00 24,5 C 42 % 982,3 hPa 0,0 l/m 28,5 km/h N-NO 10,7 C 21,2 C 15,8 km/h
25.06.2014 16:00 27,3 C 38 % 982,8 hPa 0,0 l/m 0,0 km/h N 11,7 C 27,3 C 0,0 km/h
25.06.2014 17:00 29,6 C 30 % 983,1 hPa 0,0 l/m 9,7 km/h O-NO 10,2 C 29,3 C 5,4 km/h
25.06.2014 18:00 30,7 C 30 % 983,1 hPa 0,0 l/m 0,0 km/h N-NW 11,1 C 30,7 C 0,0 km/h
25.06.2014 19:00 26,8 C 33 % 983,5 hPa 0,0 l/m 0,0 km/h N-NO 9,2 C 26,8 C 0,0 km/h
25.06.2014 20:00 20,3 C 42 % 983,7 hPa 0,0 l/m 18,1 km/h N-NO 7,0 C 17,0 C 10,1 km/h
25.06.2014 21:00 17,6 C 48 % 984,0 hPa 0,0 l/m 0,0 km/h SO 6,5 C 17,6 C 0,0 km/h
25.06.2014 22:00 13,8 C 61 % 984,7 hPa 0,0 l/m 0,0 km/h O-SO 6,4 C 13,8 C 0,0 km/h
25.06.2014 23:00 11,8 C 65 % 985,2 hPa 0,0 l/m 0,0 km/h SO 5,4 C 11,8 C 0,0 km/h
26.06.2014 00:00 11,1 C 71 % 985,4 hPa 0,0 l/m 0,0 km/h SO 6,0 C 11,1 C 0,0 km/h
26.06.2014 01:00 9,8 C 73 % 985,5 hPa 0,0 l/m 0,0 km/h SO 5,2 C 9,8 C 0,0 km/h
26.06.2014 02:00 8,3 C 74 % 985,1 hPa 0,0 l/m 0,0 km/h SO 3,9 C 8,3 C 0,0 km/h
26.06.2014 03:00 8,6 C 76 % 985,0 hPa 0,0 l/m 0,0 km/h O-SO 4,6 C 8,6 C 0,0 km/h
26.06.2014 04:00 9,2 C 73 % 984,9 hPa 0,0 l/m 0,0 km/h SO 4,6 C 9,2 C 0,0 km/h
26.06.2014 05:00 8,1 C 74 % 985,0 hPa 0,0 l/m 0,0 km/h O-SO 3,8 C 8,1 C 0,0 km/h
26.06.2014 06:00 6,9 C 80 % 985,0 hPa 0,0 l/m 0,0 km/h W-NW 3,7 C 6,9 C 0,0 km/h
26.06.2014 07:00 10,3 C 78 % 985,1 hPa 0,0 l/m 0,0 km/h W 6,6 C 10,3 C 0,0 km/h
26.06.2014 08:00 20,9 C 50 % 984,7 hPa 0,0 l/m 0,0 km/h W-NW 10,1 C 20,9 C 0,0 km/h
26.06.2014 09:00 24,1 C 41 % 984,7 hPa 0,0 l/m 1,9 km/h W-SW 10,0 C 24,1 C 1,1 km/h
26.06.2014 10:00 25,6 C 37 % 984,9 hPa 0,0 l/m 0,0 km/h W 9,8 C 25,6 C 0,0 km/h
26.06.2014 11:00 27,8 C 33 % 984,6 hPa 0,0 l/m 10,4 km/h N-NO 10,0 C 27,2 C 5,8 km/h
26.06.2014 12:00 26,6 C 32 % 984,4 hPa 0,0 l/m 3,9 km/h N-NO 8,5 C 26,6 C 2,2 km/h
26.06.2014 13:00 26,5 C 31 % 983,9 hPa 0,0 l/m 8,4 km/h W-NW 8,0 C 26,1 C 4,7 km/h
26.06.2014 14:00 26,8 C 30 % 983,9 hPa 0,0 l/m 0,0 km/h SW 7,8 C 26,8 C 0,0 km/h
26.06.2014 15:00 28,8 C 28 % 983,5 hPa 0,0 l/m 24,0 km/h N-NO 8,5 C 27,4 C 13,3 km/h
26.06.2014 16:00 32,1 C 22 % 983,9 hPa 0,0 l/m 1,3 km/h NW 7,7 C 32,1 C 0,7 km/h
26.06.2014 17:00 33,3 C 21 % 983,5 hPa 0,0 l/m 4,5 km/h NW 8,0 C 33,3 C 2,5 km/h
26.06.2014 18:00 32,6 C 21 % 983,4 hPa 0,0 l/m 3,2 km/h W 7,4 C 32,6 C 1,8 km/h
26.06.2014 19:00 29,3 C 25 % 983,6 hPa 0,0 l/m 0,0 km/h N-NO 7,2 C 29,3 C 0,0 km/h
26.06.2014 20:00 22,9 C 33 % 983,9 hPa 0,0 l/m 0,0 km/h N-NO 5,8 C 22,9 C 0,0 km/h
26.06.2014 21:00 19,5 C 42 % 984,2 hPa 0,0 l/m 0,0 km/h N-NO 6,2 C 19,5 C 0,0 km/h
26.06.2014 22:00 15,1 C 53 % 984,8 hPa 0,0 l/m 0,0 km/h O-SO 5,6 C 15,1 C 0,0 km/h
26.06.2014 23:00 14,2 C 59 % 985,1 hPa 0,0 l/m 0,0 km/h O-NO 6,3 C 14,2 C 0,0 km/h
27.06.2014 00:00 13,6 C 64 % 985,2 hPa 0,0 l/m 0,0 km/h O-NO 6,9 C 13,6 C 0,0 km/h
27.06.2014 01:00 12,7 C 65 % 985,3 hPa 0,0 l/m 0,0 km/h O-NO 6,3 C 12,7 C 0,0 km/h
27.06.2014 02:00 12,3 C 66 % 985,5 hPa 0,0 l/m 0,0 km/h O-NO 6,1 C 12,3 C 0,0 km/h
27.06.2014 03:00 10,7 C 71 % 985,5 hPa 0,0 l/m 0,0 km/h N-NO 5,7 C 10,7 C 0,0 km/h
27.06.2014 04:00 9,8 C 75 % 985,7 hPa 0,0 l/m 0,0 km/h O-NO 5,6 C 9,8 C 0,0 km/h
27.06.2014 05:00 9,5 C 76 % 985,9 hPa 0,0 l/m 0,0 km/h NO 5,5 C 9,5 C 0,0 km/h
27.06.2014 06:00 10,4 C 77 % 986,8 hPa 0,0 l/m 0,0 km/h O-NO 6,5 C 10,4 C 0,0 km/h
27.06.2014 07:00 14,1 C 70 % 986,6 hPa 0,0 l/m 0,0 km/h SO 8,7 C 14,1 C 0,0 km/h
27.06.2014 08:00 22,1 C 52 % 987,0 hPa 0,0 l/m 3,9 km/h SW 11,8 C 22,1 C 2,2 km/h
27.06.2014 09:00 27,8 C 36 % 987,0 hPa 0,0 l/m 0,0 km/h S 11,3 C 27,8 C 0,0 km/h
27.06.2014 10:00 28,9 C 35 % 987,2 hPa 0,0 l/m 8,4 km/h W-NW 11,9 C 28,6 C 4,7 km/h
27.06.2014 11:00 31,6 C 28 % 987,2 hPa 0,0 l/m 1,3 km/h SW 10,8 C 31,6 C 0,7 km/h
27.06.2014 12:00 30,9 C 27 % 986,9 hPa 0,0 l/m 6,5 km/h SW 9,7 C 30,9 C 6,5 km/h
27.06.2014 13:00 28,4 C 30 % 986,8 hPa 0,0 l/m 0,0 km/h W 9,1 C 28,4 C 0,0 km/h
27.06.2014 14:00 31,0 C 27 % 986,4 hPa 0,0 l/m 21,4 km/h W 9,8 C 30,4 C 11,9 km/h
27.06.2014 15:00 31,6 C 27 % 986,0 hPa 0,0 l/m 2,6 km/h W-NW 10,3 C 31,6 C 1,4 km/h
27.06.2014 16:00 31,2 C 27 % 985,7 hPa 0,0 l/m 7,1 km/h W 10,0 C 31,2 C 4,0 km/h
27.06.2014 17:00 30,3 C 28 % 985,5 hPa 0,0 l/m 18,8 km/h SW 9,7 C 29,6 C 10,4 km/h
27.06.2014 18:00 28,2 C 33 % 985,2 hPa 0,0 l/m 0,0 km/h W-SW 10,4 C 28,2 C 0,0 km/h
27.06.2014 19:00 28,2 C 34 % 985,0 hPa 0,0 l/m 8,4 km/h SW 10,8 C 27,9 C 4,7 km/h
27.06.2014 20:00 24,1 C 41 % 985,3 hPa 0,0 l/m 1,9 km/h S 10,0 C 24,1 C 1,1 km/h
27.06.2014 21:00 22,0 C 46 % 985,4 hPa 0,0 l/m 0,0 km/h S 9,8 C 22,0 C 0,0 km/h
27.06.2014 22:00 20,7 C 50 % 985,8 hPa 0,0 l/m 0,0 km/h S-SO 9,9 C 20,7 C 0,0 km/h
27.06.2014 23:00 18,9 C 55 % 985,7 hPa 0,0 l/m 0,0 km/h N-NO 9,7 C 18,9 C 0,0 km/h
28.06.2014 00:00 17,4 C 64 % 986,2 hPa 0,0 l/m 0,0 km/h N-NO 10,5 C 17,4 C 0,0 km/h
28.06.2014 01:00 17,7 C 65 % 986,0 hPa 0,0 l/m 0,0 km/h N-NO 11,0 C 17,7 C 0,0 km/h
28.06.2014 02:00 17,1 C 68 % 986,3 hPa 0,0 l/m 0,0 km/h N-NO 11,1 C 17,1 C 0,0 km/h
28.06.2014 03:00 16,3 C 68 % 986,2 hPa 0,0 l/m 0,0 km/h N-NO 10,4 C 16,3 C 0,0 km/h
28.06.2014 04:00 15,0 C 74 % 986,3 hPa 0,0 l/m 0,0 km/h N-NO 10,4 C 15,0 C 0,0 km/h
28.06.2014 05:00 14,6 C 75 % 985,6 hPa 0,0 l/m 0,0 km/h O-SO 10,2 C 14,6 C 0,0 km/h
28.06.2014 06:00 14,2 C 77 % 985,3 hPa 0,0 l/m 0,0 km/h S-SO 10,2 C 14,2 C 0,0 km/h
28.06.2014 07:00 17,5 C 72 % 985,4 hPa 0,0 l/m 0,0 km/h SO 12,4 C 17,5 C 0,0 km/h
28.06.2014 08:00 17,9 C 76 % 984,8 hPa 0,0 l/m 0,0 km/h O-SO 13,6 C 17,9 C 0,0 km/h
28.06.2014 09:00 23,8 C 63 % 984,7 hPa 0,0 l/m 0,0 km/h W-NW 16,3 C 23,8 C 0,0 km/h
28.06.2014 10:00 22,3 C 61 % 985,4 hPa 0,0 l/m 0,0 km/h N-NO 14,4 C 22,3 C 0,0 km/h
28.06.2014 11:00 25,3 C 54 % 984,6 hPa 0,0 l/m 0,0 km/h W-NW 15,3 C 25,3 C 0,0 km/h
28.06.2014 12:00 24,5 C 46 % 984,0 hPa 0,0 l/m 0,0 km/h W-NW 12,1 C 24,5 C 0,0 km/h
28.06.2014 13:00 22,9 C 55 % 983,9 hPa 0,0 l/m 0,0 km/h W 13,4 C 22,9 C 0,0 km/h
28.06.2014 14:00 20,9 C 66 % 983,4 hPa 0,0 l/m 0,0 km/h S-SO 14,3 C 20,9 C 0,0 km/h
28.06.2014 15:00 20,7 C 71 % 982,1 hPa 0,2 l/m 16,2 km/h N 15,2 C 17,8 C 9,0 km/h
28.06.2014 16:00 24,6 C 58 % 981,2 hPa 0,0 l/m 0,0 km/h W 15,8 C 24,6 C 0,0 km/h
28.06.2014 17:00 26,4 C 51 % 980,4 hPa 0,0 l/m 0,0 km/h W 15,4 C 26,4 C 0,0 km/h
28.06.2014 18:00 24,3 C 55 % 980,1 hPa 0,0 l/m 0,0 km/h W 14,7 C 24,3 C 0,0 km/h
28.06.2014 19:00 22,1 C 63 % 979,5 hPa 0,0 l/m 0,0 km/h SO 14,7 C 22,1 C 0,0 km/h
28.06.2014 20:00 17,2 C 80 % 980,3 hPa 0,6 l/m 10,4 km/h S-SO 13,7 C 15,4 C 5,8 km/h
28.06.2014 21:00 17,7 C 80 % 979,0 hPa 0,3 l/m 1,1 km/h O-NO 14,2 C 17,7 C 1,1 km/h
28.06.2014 22:00 17,1 C 82 % 979,0 hPa 0,0 l/m 0,0 km/h S-SO 14,0 C 17,1 C 0,0 km/h
28.06.2014 23:00 16,0 C 83 % 981,8 hPa 0,5 l/m 0,0 km/h S-SW 13,1 C 16,0 C 0,0 km/h
29.06.2014 00:00 15,9 C 82 % 981,1 hPa 0,0 l/m 15,1 km/h S 12,8 C 12,3 C 15,1 km/h
29.06.2014 01:00 16,1 C 81 % 980,8 hPa 0,5 l/m 9,7 km/h S 12,8 C 14,5 C 9,7 km/h
29.06.2014 02:00 16,3 C 83 % 980,7 hPa 0,0 l/m 0,0 km/h W 13,4 C 16,3 C 0,0 km/h
29.06.2014 03:00 16,4 C 82 % 979,3 hPa 0,0 l/m 0,0 km/h O 13,3 C 16,4 C 0,0 km/h
29.06.2014 04:00 15,2 C 84 % 978,2 hPa 0,0 l/m 0,0 km/h O-SO 12,5 C 15,2 C 0,0 km/h
29.06.2014 05:00 14,9 C 83 % 978,8 hPa 0,0 l/m 0,0 km/h O-NO 12,0 C 14,9 C 0,0 km/h
29.06.2014 06:00 15,4 C 82 % 979,3 hPa 0,0 l/m 0,0 km/h SW 12,3 C 15,4 C 0,0 km/h
29.06.2014 07:00 17,2 C 80 % 979,5 hPa 0,0 l/m 40,2 km/h S-SW 13,7 C 9,6 C 22,3 km/h
29.06.2014 08:00 17,6 C 77 % 979,6 hPa 0,0 l/m 13,0 km/h W 13,5 C 14,9 C 7,2 km/h
29.06.2014 09:00 17,9 C 76 % 981,1 hPa 0,0 l/m 22,7 km/h SW 13,6 C 13,0 C 12,6 km/h
29.06.2014 10:00 18,3 C 75 % 981,7 hPa 0,0 l/m 23,3 km/h W-SW 13,8 C 13,4 C 13,0 km/h
29.06.2014 11:00 18,9 C 71 % 981,9 hPa 0,0 l/m 28,5 km/h S-SW 13,5 C 13,4 C 15,8 km/h
29.06.2014 12:00 20,3 C 66 % 982,0 hPa 0,0 l/m 23,3 km/h W-NW 13,7 C 16,0 C 13,0 km/h
29.06.2014 13:00 17,4 C 72 % 982,1 hPa 0,2 l/m 0,0 km/h N-NO 12,3 C 17,4 C 0,0 km/h
29.06.2014 14:00 14,7 C 83 % 982,4 hPa 3,0 l/m 0,0 km/h SO 11,8 C 14,7 C 0,0 km/h
29.06.2014 15:00 16,2 C 83 % 982,4 hPa 0,2 l/m 2,6 km/h S-SO 13,3 C 16,2 C 1,4 km/h
29.06.2014 16:00 19,6 C 77 % 982,0 hPa 0,0 l/m 11,0 km/h S-SO 15,5 C 17,9 C 6,1 km/h
29.06.2014 17:00 17,1 C 79 % 982,0 hPa 0,6 l/m 3,9 km/h NO 13,4 C 17,1 C 2,2 km/h
29.06.2014 18:00 19,1 C 76 % 982,5 hPa 0,2 l/m 0,0 km/h N-NO 14,8 C 19,1 C 0,0 km/h
29.06.2014 19:00 16,1 C 80 % 982,6 hPa 0,0 l/m 0,0 km/h SO 12,6 C 16,1 C 0,0 km/h
29.06.2014 20:00 15,0 C 83 % 983,1 hPa 0,6 l/m 1,9 km/h S-SO 12,1 C 15,0 C 1,1 km/h
29.06.2014 21:00 12,8 C 84 % 983,2 hPa 0,0 l/m 0,0 km/h S-SO 10,2 C 12,8 C 0,0 km/h
29.06.2014 22:00 12,1 C 83 % 984,1 hPa 0,0 l/m 0,0 km/h S-SO 9,3 C 12,1 C 0,0 km/h
29.06.2014 23:00 12,0 C 83 % 984,4 hPa 0,0 l/m 0,0 km/h O-SO 9,2 C 12,0 C 0,0 km/h
Min-Datum _ 26.06.14 26.06.14 29.06.14 - 23.06.14 - 26.06.14 26.06.14 23.06.14
_ Min-Zeit 06:19 17:19 04:19 - 00:19 - 06:19 06:19 00:19
Minimum _ 6,9 C 21 % 978,2 hPa - 0,0 km/h - 3,7 C 6,9 C 0,0 km/h
Max-Datum _ 24.06.14 24.06.14 23.06.14 29.06.14 29.06.14 - 24.06.14 24.06.14 29.06.14
_ Max-Zeit 17:19 01:19 08:19 14:19 07:19 - 12:19 17:19 07:19
Maximum _ 33,6 C 84 % 990,7 hPa 3,0 l/m 40,2 km/h
S-SW
- 18,1 C 33,6 C 22,3 km/h
S-SW
Durchschnitt _ 19,8 C 60 % 984,8 hPa #8,1 l/m 3,4 km/h N-NO 10,8 C 19,5 C 2,0 km/h
www.sexauwetter.de